Forside
METAR-TAF:

METAR-TAF

Lufthavne :

Agri-Science Center

Chillicothe, Missouri, USA

Breddekreds: 39-49N, længdekreds: 093-35W, højde: 234 m

Aktuelle vejr

Denne rapport blev lavet for 31 minutter siden, kl. 06:52 UTC
Vind 4 kt fra syd
Temperatur 6°C
Fugtighed 87%
Tryk 1019 hPa

METAR: KCDJ 220652Z AUTO 19004KT 06/04 A3010 RMK AO1 SLP196 T00610039 $

Tid: 02:23 (07:23 UTC)


TAF: fraværende

Vejrobservationer og prognoser fra mere end 4000 lufthavne (METAR og TAF).

De gule og røde prikker repræsenterer de meteorologiske stationer.

Flyt musen over at se navnet på stationen.

Så klik over at se vejr observationer og prognoser.

At skifte det kort: Klik på de grønne knapper med et sort kors for at zoome ind; på den grønne knap med en bindestreg for at zoome ud; eller på de grønne pile for tilstødende kort.


METAR-TAF: